createdAt,value
2023-05-07T00:02:02.336Z,3.30
2023-05-07T00:04:29.541Z,3.10
2023-05-07T00:06:56.730Z,3.50
2023-05-07T00:09:23.395Z,3.90
2023-05-07T00:11:49.991Z,3.70
2023-05-07T00:14:16.620Z,4.00
2023-05-07T00:16:43.319Z,3.40
2023-05-07T00:19:10.001Z,3.50
2023-05-07T00:21:36.625Z,3.00
2023-05-07T00:24:03.260Z,3.20
2023-05-07T00:26:29.899Z,3.30
2023-05-07T00:28:56.534Z,3.60
2023-05-07T00:31:23.115Z,3.50
2023-05-07T00:33:49.947Z,3.10
2023-05-07T00:36:16.535Z,3.30
2023-05-07T00:38:43.165Z,3.20
2023-05-07T00:41:09.792Z,3.40
2023-05-07T00:43:36.430Z,3.60
2023-05-07T00:46:03.169Z,2.80
2023-05-07T00:48:29.989Z,3.20
2023-05-07T00:50:58.021Z,3.00
2023-05-07T00:53:25.625Z,3.70
2023-05-07T00:55:52.233Z,3.20
2023-05-07T00:58:18.864Z,3.40
2023-05-07T01:00:45.390Z,3.00
2023-05-07T01:03:12.003Z,3.40
2023-05-07T01:05:39.387Z,3.10
2023-05-07T01:08:07.013Z,3.00
2023-05-07T01:10:33.745Z,3.40
2023-05-07T01:13:01.520Z,3.10
2023-05-07T01:15:28.570Z,3.30
2023-05-07T01:17:57.310Z,3.70
2023-05-07T01:20:29.367Z,3.50
2023-05-07T01:22:58.324Z,3.30
2023-05-07T01:25:25.552Z,3.40
2023-05-07T01:27:53.643Z,3.20
2023-05-07T01:30:23.484Z,2.90
2023-05-07T01:32:54.608Z,3.10
2023-05-07T01:35:26.036Z,3.40
2023-05-07T01:37:53.580Z,3.20
2023-05-07T01:40:20.289Z,2.70
2023-05-07T01:42:47.452Z,3.30
2023-05-07T01:45:14.012Z,2.60
2023-05-07T01:47:40.953Z,3.00
2023-05-07T01:50:09.844Z,3.00
2023-05-07T01:52:40.135Z,3.20
2023-05-07T01:57:33.939Z,3.10
2023-05-07T02:00:00.565Z,3.10
2023-05-07T02:02:27.159Z,3.20
2023-05-07T02:04:54.675Z,3.10
2023-05-07T02:07:22.639Z,3.00
2023-05-07T02:09:49.788Z,3.00
2023-05-07T02:12:16.354Z,2.60
2023-05-07T02:14:43.340Z,2.90
2023-05-07T02:17:15.975Z,2.80
2023-05-07T02:19:42.600Z,3.00
2023-05-07T02:22:10.990Z,2.70
2023-05-07T02:24:37.511Z,3.00
2023-05-07T02:27:05.972Z,2.60
2023-05-07T02:29:33.644Z,2.70
2023-05-07T02:32:00.306Z,2.40
2023-05-07T02:34:26.942Z,2.30
2023-05-07T02:36:53.522Z,2.80
2023-05-07T02:39:22.801Z,2.30
2023-05-07T02:41:49.331Z,2.50
2023-05-07T02:44:16.132Z,2.50
2023-05-07T02:46:43.689Z,3.00
2023-05-07T02:49:11.461Z,2.70
2023-05-07T02:51:38.300Z,2.20
2023-05-07T02:54:08.469Z,2.40
2023-05-07T02:56:35.111Z,2.40
2023-05-07T02:59:01.714Z,2.10
2023-05-07T03:01:31.157Z,2.20
2023-05-07T03:04:06.137Z,2.30
2023-05-07T03:06:32.779Z,2.40
2023-05-07T03:08:59.504Z,2.60
2023-05-07T03:11:26.412Z,2.60
2023-05-07T03:13:52.977Z,1.90
2023-05-07T03:16:20.174Z,2.50
2023-05-07T03:18:46.741Z,2.20
2023-05-07T03:21:13.328Z,2.30
2023-05-07T03:23:39.868Z,2.30
2023-05-07T03:26:06.452Z,2.60
2023-05-07T03:28:32.957Z,2.20
2023-05-07T03:31:02.189Z,2.20
2023-05-07T03:33:29.473Z,2.50
2023-05-07T03:35:56.089Z,2.30
2023-05-07T03:38:24.175Z,2.50
2023-05-07T03:40:51.088Z,2.20
2023-05-07T03:43:17.844Z,2.30
2023-05-07T03:45:48.049Z,2.20
2023-05-07T03:48:18.471Z,2.20
2023-05-07T03:50:45.643Z,2.10
2023-05-07T03:53:12.634Z,2.30
2023-05-07T03:55:39.839Z,2.30
2023-05-07T03:58:06.575Z,2.10
2023-05-07T04:00:38.019Z,2.20
2023-05-07T04:03:07.987Z,2.10
2023-05-07T04:05:34.772Z,2.10
2023-05-07T04:08:03.188Z,2.10
2023-05-07T04:10:37.680Z,1.80
2023-05-07T04:13:07.716Z,2.50
2023-05-07T04:15:34.805Z,1.90
2023-05-07T04:18:01.462Z,2.30
2023-05-07T04:20:28.105Z,2.10
2023-05-07T04:22:59.387Z,2.10
2023-05-07T04:25:27.652Z,1.90
2023-05-07T04:27:58.209Z,2.10
2023-05-07T04:30:26.467Z,2.00
2023-05-07T04:32:53.891Z,2.20
2023-05-07T04:35:20.617Z,1.90
2023-05-07T04:37:47.164Z,2.00
2023-05-07T04:40:14.262Z,2.10
2023-05-07T04:42:41.552Z,2.00
2023-05-07T04:45:09.718Z,2.10
2023-05-07T04:47:37.721Z,2.00
2023-05-07T04:50:04.493Z,1.50
2023-05-07T04:52:31.192Z,1.70
2023-05-07T04:55:02.315Z,2.10
2023-05-07T04:57:30.766Z,1.80
2023-05-07T04:59:58.844Z,1.80
2023-05-07T05:02:25.921Z,1.90
2023-05-07T05:04:52.778Z,1.70
2023-05-07T05:07:19.826Z,1.70
2023-05-07T05:09:46.366Z,1.60
2023-05-07T05:12:13.002Z,1.80
2023-05-07T05:14:39.661Z,1.90
2023-05-07T05:17:13.612Z,1.60
2023-05-07T05:19:40.204Z,1.60
2023-05-07T05:22:06.865Z,1.80
2023-05-07T05:24:33.926Z,1.80
2023-05-07T05:27:02.398Z,1.50
2023-05-07T05:29:29.703Z,1.80
2023-05-07T05:31:56.688Z,1.80
2023-05-07T05:34:24.038Z,1.40
2023-05-07T05:36:50.981Z,1.70
2023-05-07T05:39:18.230Z,1.40
2023-05-07T05:41:45.218Z,1.60
2023-05-07T05:44:16.014Z,1.90
2023-05-07T05:46:43.298Z,1.90
2023-05-07T05:49:09.918Z,1.80
2023-05-07T05:51:36.867Z,1.80
2023-05-07T05:54:03.687Z,1.80
2023-05-07T05:56:31.636Z,1.80
2023-05-07T05:58:58.632Z,2.10
2023-05-07T06:01:25.434Z,2.10
2023-05-07T06:03:53.147Z,2.50
2023-05-07T06:06:20.220Z,2.90
2023-05-07T06:08:46.927Z,2.90
2023-05-07T06:11:16.322Z,2.50
2023-05-07T06:13:44.756Z,1.90
2023-05-07T06:16:11.838Z,2.40
2023-05-07T06:18:38.485Z,2.00
2023-05-07T06:21:05.523Z,2.50
2023-05-07T06:23:32.708Z,2.00
2023-05-07T06:25:59.626Z,2.20
2023-05-07T06:28:31.882Z,1.60
2023-05-07T06:31:12.820Z,2.30
2023-05-07T06:33:40.486Z,1.60
2023-05-07T06:36:07.828Z,2.10
2023-05-07T06:38:35.053Z,2.00
2023-05-07T06:41:01.683Z,1.70
2023-05-07T06:43:28.368Z,2.00
2023-05-07T06:46:02.645Z,2.00
2023-05-07T06:48:29.738Z,1.70
2023-05-07T06:51:00.840Z,1.80
2023-05-07T06:53:27.582Z,1.70
2023-05-07T06:55:55.016Z,1.90
2023-05-07T06:58:21.640Z,2.30
2023-05-07T07:00:48.433Z,1.70
2023-05-07T07:03:15.154Z,2.30
2023-05-07T07:05:42.974Z,4.60
2023-05-07T07:08:09.711Z,2.90
2023-05-07T07:10:37.089Z,1.90
2023-05-07T07:13:03.891Z,1.90
2023-05-07T07:15:30.611Z,2.20
2023-05-07T07:17:57.476Z,1.90
2023-05-07T07:20:24.581Z,2.20
2023-05-07T07:22:51.443Z,2.20
2023-05-07T07:25:18.394Z,2.60
2023-05-07T07:27:46.007Z,2.50
2023-05-07T07:30:13.289Z,3.00
2023-05-07T07:32:41.033Z,1.80
2023-05-07T07:35:08.548Z,1.90
2023-05-07T07:37:36.037Z,2.00
2023-05-07T07:40:02.830Z,3.00
2023-05-07T07:42:30.319Z,1.90
2023-05-07T07:44:58.223Z,2.10
2023-05-07T07:47:25.518Z,2.20
2023-05-07T07:49:52.775Z,2.20
2023-05-07T07:52:19.944Z,2.20
2023-05-07T07:54:46.762Z,2.10
2023-05-07T07:57:13.558Z,1.80
2023-05-07T07:59:40.579Z,2.30
2023-05-07T08:02:07.590Z,2.20
2023-05-07T08:04:35.259Z,1.80
2023-05-07T08:07:04.993Z,2.20
2023-05-07T08:09:32.887Z,2.30
2023-05-07T08:12:00.207Z,2.20
2023-05-07T08:14:26.989Z,2.00
2023-05-07T08:16:53.855Z,2.00
2023-05-07T08:19:21.177Z,1.70
2023-05-07T08:21:48.846Z,2.40
2023-05-07T08:24:16.427Z,3.80
2023-05-07T08:26:43.326Z,2.70
2023-05-07T08:29:10.642Z,3.50
2023-05-07T08:31:37.311Z,2.00
2023-05-07T08:34:04.479Z,2.00
2023-05-07T08:36:30.979Z,2.20
2023-05-07T08:38:57.826Z,2.30
2023-05-07T08:41:24.492Z,2.10
2023-05-07T08:43:52.698Z,2.00
2023-05-07T08:46:22.530Z,1.90
2023-05-07T08:48:50.582Z,2.20
2023-05-07T08:51:21.582Z,2.20
2023-05-07T08:53:49.756Z,2.10
2023-05-07T08:56:22.471Z,2.20
2023-05-07T08:58:49.997Z,1.90
2023-05-07T09:01:17.998Z,1.80
2023-05-07T09:03:47.915Z,2.20
2023-05-07T09:06:15.425Z,1.90
2023-05-07T09:08:42.272Z,1.90
2023-05-07T09:11:09.095Z,2.40
2023-05-07T09:13:36.849Z,2.00
2023-05-07T09:16:13.706Z,2.50
2023-05-07T09:18:45.739Z,2.40
2023-05-07T09:21:16.918Z,2.40
2023-05-07T09:23:43.974Z,2.30
2023-05-07T09:26:12.953Z,2.10
2023-05-07T09:28:43.753Z,1.90
2023-05-07T09:31:12.686Z,2.20
2023-05-07T09:33:40.700Z,1.80
2023-05-07T09:36:10.980Z,2.10
2023-05-07T09:38:39.557Z,2.00
2023-05-07T09:41:09.005Z,2.30
2023-05-07T09:43:42.033Z,2.00
2023-05-07T09:46:13.442Z,2.70
2023-05-07T09:48:42.841Z,1.90
2023-05-07T09:51:28.172Z,2.00
2023-05-07T09:53:55.176Z,2.10
2023-05-07T09:56:22.379Z,2.20
2023-05-07T09:58:52.516Z,2.30
2023-05-07T10:01:23.034Z,2.00
2023-05-07T10:03:52.238Z,2.50
2023-05-07T10:06:21.133Z,2.30
2023-05-07T10:08:48.303Z,2.30
2023-05-07T10:11:16.712Z,2.60
2023-05-07T10:13:44.670Z,2.50
2023-05-07T10:16:11.752Z,2.20
2023-05-07T10:18:46.900Z,2.00
2023-05-07T10:21:24.111Z,2.40
2023-05-07T10:24:01.081Z,2.20
2023-05-07T10:26:30.967Z,2.10
2023-05-07T10:29:04.584Z,2.00
2023-05-07T10:31:52.043Z,2.00
2023-05-07T10:34:24.244Z,2.30
2023-05-07T10:36:52.932Z,2.60
2023-05-07T10:39:21.940Z,2.60
2023-05-07T10:41:49.449Z,1.60
2023-05-07T10:44:30.014Z,2.00
2023-05-07T10:47:19.858Z,1.80
2023-05-07T10:49:48.419Z,2.30
2023-05-07T10:52:27.691Z,2.00
2023-05-07T10:55:26.691Z,3.00
2023-05-07T10:58:31.416Z,2.60
2023-05-07T11:01:51.762Z,3.10
2023-05-07T11:04:25.706Z,1.80
2023-05-07T11:07:09.346Z,2.30
2023-05-07T11:09:52.528Z,2.30
2023-05-07T11:12:36.931Z,2.80
2023-05-07T11:15:12.398Z,2.70
2023-05-07T11:17:57.085Z,4.10
2023-05-07T11:20:51.939Z,5.80
2023-05-07T11:26:13.714Z,2.50
2023-05-07T11:28:42.832Z,2.90
2023-05-07T11:31:11.547Z,2.50
2023-05-07T11:33:39.669Z,2.70
2023-05-07T11:38:40.350Z,2.20
2023-05-07T11:41:08.353Z,2.10
2023-05-07T11:43:36.751Z,2.90
2023-05-07T11:46:11.601Z,2.70
2023-05-07T11:48:39.785Z,2.90
2023-05-07T11:51:10.095Z,2.30
2023-05-07T11:53:42.242Z,2.10
2023-05-07T11:56:09.612Z,2.10
2023-05-07T11:58:36.494Z,3.00
2023-05-07T12:01:03.461Z,2.70
2023-05-07T12:03:32.071Z,2.50
2023-05-07T12:06:02.523Z,2.60
2023-05-07T12:08:29.062Z,3.40
2023-05-07T12:10:55.769Z,2.40
2023-05-07T12:13:24.721Z,1.50
2023-05-07T12:15:53.396Z,1.60
2023-05-07T12:18:21.610Z,1.70
2023-05-07T12:20:48.518Z,1.80
2023-05-07T12:23:16.185Z,1.70
2023-05-07T12:25:47.725Z,1.90
2023-05-07T12:28:19.396Z,1.70
2023-05-07T12:30:51.769Z,2.10
2023-05-07T12:33:20.248Z,1.80
2023-05-07T12:35:48.897Z,1.70
2023-05-07T12:38:18.243Z,2.00
2023-05-07T12:40:46.414Z,2.30
2023-05-07T12:43:26.232Z,2.00
2023-05-07T12:45:55.773Z,2.20
2023-05-07T12:48:23.538Z,2.30
2023-05-07T12:51:02.545Z,1.70
2023-05-07T12:53:30.774Z,1.50
2023-05-07T12:56:00.561Z,1.60
2023-05-07T12:58:33.718Z,1.70
2023-05-07T13:01:02.634Z,1.90
2023-05-07T13:03:32.364Z,1.80
2023-05-07T13:06:19.332Z,1.40
2023-05-07T13:08:46.095Z,1.50
2023-05-07T13:11:13.778Z,1.30
2023-05-07T13:13:42.157Z,1.30
2023-05-07T13:16:11.235Z,2.00
2023-05-07T13:18:41.325Z,5.10
2023-05-07T13:21:08.464Z,2.00
2023-05-07T13:23:35.151Z,1.60
2023-05-07T13:26:08.567Z,1.50
2023-05-07T13:31:08.394Z,2.40
2023-05-07T13:33:35.070Z,2.50
2023-05-07T13:36:02.062Z,1.90
2023-05-07T13:38:28.667Z,1.80
2023-05-07T13:40:55.429Z,1.30
2023-05-07T13:43:21.911Z,1.40
2023-05-07T13:45:48.531Z,2.30
2023-05-07T13:48:15.209Z,4.70
2023-05-07T13:50:41.841Z,1.90
2023-05-07T13:53:09.453Z,1.60
2023-05-07T13:55:36.168Z,1.60
2023-05-07T13:58:06.937Z,1.30
2023-05-07T14:00:34.047Z,1.50
2023-05-07T14:03:00.814Z,1.30
2023-05-07T14:05:30.478Z,1.70
2023-05-07T14:07:59.082Z,1.70
2023-05-07T14:10:26.272Z,1.40
2023-05-07T14:12:53.771Z,1.50
2023-05-07T14:15:20.498Z,1.00
2023-05-07T14:17:47.882Z,1.40
2023-05-07T14:20:14.738Z,1.50
2023-05-07T14:22:41.794Z,1.20
2023-05-07T14:25:10.806Z,1.50
2023-05-07T14:27:37.764Z,1.60
2023-05-07T14:30:04.907Z,1.60
2023-05-07T14:32:31.507Z,1.70
2023-05-07T14:34:58.127Z,1.50
2023-05-07T14:37:25.214Z,2.30
2023-05-07T14:39:51.826Z,1.60
2023-05-07T14:42:18.756Z,1.50
2023-05-07T14:44:46.658Z,1.90
2023-05-07T14:47:14.028Z,2.40
2023-05-07T14:49:41.830Z,1.40
2023-05-07T14:52:11.097Z,1.60
2023-05-07T14:54:39.226Z,1.80
2023-05-07T14:57:07.431Z,1.80
2023-05-07T14:59:34.390Z,2.70
2023-05-07T15:02:02.475Z,1.70
2023-05-07T15:04:30.660Z,1.60
2023-05-07T15:06:57.211Z,1.80
2023-05-07T15:09:23.771Z,1.70
2023-05-07T15:11:50.358Z,1.80
2023-05-07T15:14:16.969Z,1.90
2023-05-07T15:16:43.605Z,1.80
2023-05-07T15:19:10.282Z,1.80
2023-05-07T15:21:37.334Z,2.00
2023-05-07T15:24:04.105Z,1.90
2023-05-07T15:26:31.178Z,2.10
2023-05-07T15:28:58.292Z,2.40
2023-05-07T15:31:26.682Z,2.10
2023-05-07T15:33:53.388Z,2.20
2023-05-07T15:36:21.390Z,1.60
2023-05-07T15:38:48.106Z,1.80
2023-05-07T15:41:15.099Z,2.20
2023-05-07T15:43:46.983Z,1.80
2023-05-07T15:46:13.705Z,2.00
2023-05-07T15:48:41.346Z,2.40
2023-05-07T15:51:09.036Z,2.70
2023-05-07T15:53:35.838Z,2.60
2023-05-07T15:56:02.456Z,2.60
2023-05-07T15:58:29.072Z,2.20
2023-05-07T16:00:56.358Z,2.50
2023-05-07T16:03:23.655Z,2.30
2023-05-07T16:05:50.572Z,2.50
2023-05-07T16:08:17.248Z,4.00
2023-05-07T16:10:43.829Z,4.70
2023-05-07T16:13:10.371Z,5.20
2023-05-07T16:15:37.099Z,4.10
2023-05-07T16:18:04.653Z,4.50
2023-05-07T16:20:31.566Z,3.30
2023-05-07T16:22:58.785Z,3.10
2023-05-07T16:25:25.584Z,4.10
2023-05-07T16:27:54.844Z,6.60
2023-05-07T16:30:21.504Z,5.70
2023-05-07T16:32:48.196Z,4.10
2023-05-07T16:35:15.280Z,2.70
2023-05-07T16:37:42.083Z,2.60
2023-05-07T16:40:10.596Z,2.90
2023-05-07T16:42:37.355Z,5.30
2023-05-07T16:45:07.138Z,7.40
2023-05-07T16:47:33.829Z,6.30
2023-05-07T16:50:00.789Z,12.60
2023-05-07T16:52:30.030Z,4.80
2023-05-07T16:55:00.792Z,9.80
2023-05-07T16:57:29.195Z,6.10
2023-05-07T16:59:57.072Z,5.80
2023-05-07T17:02:23.840Z,7.30
2023-05-07T17:04:50.557Z,6.90
2023-05-07T17:07:17.303Z,7.80
2023-05-07T17:09:43.875Z,4.60
2023-05-07T17:12:10.512Z,3.50
2023-05-07T17:14:37.202Z,2.90
2023-05-07T17:17:03.822Z,2.90
2023-05-07T17:19:30.789Z,3.20
2023-05-07T17:21:57.613Z,3.30
2023-05-07T17:24:24.289Z,3.60
2023-05-07T17:26:50.898Z,2.60
2023-05-07T17:29:20.610Z,2.70
2023-05-07T17:31:49.291Z,3.10
2023-05-07T17:34:15.917Z,3.40
2023-05-07T17:36:42.579Z,3.30
2023-05-07T17:39:09.143Z,3.40
2023-05-07T17:41:36.717Z,4.40
2023-05-07T17:44:03.861Z,7.90
2023-05-07T17:46:30.723Z,10.40
2023-05-07T17:48:57.987Z,9.50
2023-05-07T17:51:26.179Z,6.40
2023-05-07T17:53:52.729Z,5.60
2023-05-07T17:56:19.357Z,5.90
2023-05-07T17:58:58.771Z,4.70
2023-05-07T18:01:26.297Z,4.60
2023-05-07T18:03:53.305Z,5.00
2023-05-07T18:06:21.996Z,4.90
2023-05-07T18:08:49.259Z,5.20
2023-05-07T18:11:16.149Z,5.80
2023-05-07T18:13:42.719Z,6.80
2023-05-07T18:16:09.925Z,6.90
2023-05-07T18:18:36.863Z,7.10
2023-05-07T18:21:04.136Z,8.10
2023-05-07T18:23:30.909Z,8.70
2023-05-07T18:25:57.645Z,13.00
2023-05-07T18:28:25.423Z,15.90
2023-05-07T18:30:52.198Z,15.00
2023-05-07T18:33:18.841Z,31.80
2023-05-07T18:35:45.499Z,39.00
2023-05-07T18:38:12.100Z,35.20
2023-05-07T18:40:44.101Z,32.80
2023-05-07T18:43:11.124Z,31.30
2023-05-07T18:45:40.648Z,16.60
2023-05-07T18:48:07.702Z,20.10
2023-05-07T18:50:34.700Z,26.20
2023-05-07T18:53:01.865Z,18.40
2023-05-07T18:55:28.675Z,26.00
2023-05-07T18:57:55.389Z,26.30
2023-05-07T19:00:22.134Z,26.50
2023-05-07T19:02:48.901Z,21.80
2023-05-07T19:05:15.609Z,21.40
2023-05-07T19:07:42.273Z,17.80
2023-05-07T19:10:09.209Z,18.40
2023-05-07T19:12:35.907Z,19.70
2023-05-07T19:15:02.494Z,31.50
2023-05-07T19:17:29.283Z,23.60
2023-05-07T19:19:55.943Z,26.90
2023-05-07T19:22:22.739Z,24.30
2023-05-07T19:24:49.403Z,24.60
2023-05-07T19:27:16.044Z,22.60
2023-05-07T19:29:43.405Z,21.90
2023-05-07T19:32:10.299Z,21.50
2023-05-07T19:34:37.074Z,22.10
2023-05-07T19:37:05.559Z,22.50
2023-05-07T19:39:32.286Z,22.40
2023-05-07T19:41:59.023Z,24.80
2023-05-07T19:44:25.989Z,26.70
2023-05-07T19:46:52.755Z,26.70
2023-05-07T19:49:19.611Z,27.60
2023-05-07T19:51:46.239Z,28.30
2023-05-07T19:54:13.274Z,27.50
2023-05-07T19:56:41.954Z,28.40
2023-05-07T19:59:08.744Z,28.60
2023-05-07T20:01:36.275Z,29.30
2023-05-07T20:04:03.247Z,28.90
2023-05-07T20:06:30.091Z,28.50
2023-05-07T20:08:57.046Z,27.60
2023-05-07T20:11:23.664Z,26.60
2023-05-07T20:13:50.271Z,27.20
2023-05-07T20:16:17.066Z,28.20
2023-05-07T20:18:44.082Z,29.80
2023-05-07T20:21:10.795Z,26.80
2023-05-07T20:23:37.458Z,27.40
2023-05-07T20:26:04.049Z,25.30
2023-05-07T20:28:30.706Z,25.70
2023-05-07T20:30:57.236Z,42.00
2023-05-07T20:33:24.093Z,46.50
2023-05-07T20:35:50.687Z,103.80
2023-05-07T20:38:17.327Z,89.20
2023-05-07T20:40:44.438Z,54.50
2023-05-07T20:43:11.262Z,48.00
2023-05-07T20:45:38.186Z,42.90
2023-05-07T20:48:05.162Z,33.50
2023-05-07T20:50:32.204Z,43.00
2023-05-07T20:52:58.801Z,43.70
2023-05-07T20:55:27.598Z,45.10
2023-05-07T20:57:54.648Z,40.80
2023-05-07T21:00:21.458Z,49.00
2023-05-07T21:02:48.848Z,44.80
2023-05-07T21:05:15.965Z,40.80
2023-05-07T21:07:45.750Z,42.70
2023-05-07T21:10:13.604Z,43.20
2023-05-07T21:12:40.748Z,37.60
2023-05-07T21:15:08.705Z,36.90
2023-05-07T21:17:35.690Z,34.50
2023-05-07T21:20:03.962Z,37.70
2023-05-07T21:22:31.194Z,36.30
2023-05-07T21:24:57.925Z,38.00
2023-05-07T21:27:24.641Z,40.20
2023-05-07T21:29:51.327Z,38.60
2023-05-07T21:32:17.957Z,38.50
2023-05-07T21:34:44.671Z,37.80
2023-05-07T21:37:11.802Z,38.30
2023-05-07T21:39:38.994Z,42.60
2023-05-07T21:42:05.801Z,44.90
2023-05-07T21:44:32.555Z,42.50
2023-05-07T21:46:59.395Z,39.90
2023-05-07T21:49:26.237Z,46.60
2023-05-07T21:51:52.916Z,42.80
2023-05-07T21:54:19.937Z,41.50
2023-05-07T21:56:48.174Z,42.30
2023-05-07T21:59:16.876Z,47.60
2023-05-07T22:01:43.688Z,43.40
2023-05-07T22:04:11.267Z,45.00
2023-05-07T22:06:38.017Z,46.30
2023-05-07T22:09:04.588Z,44.70
2023-05-07T22:11:31.224Z,47.50
2023-05-07T22:13:57.856Z,45.00
2023-05-07T22:16:24.524Z,44.30
2023-05-07T22:18:51.552Z,40.90
2023-05-07T22:21:18.127Z,38.70
2023-05-07T22:23:44.850Z,36.80
2023-05-07T22:26:12.933Z,34.80
2023-05-07T22:28:42.480Z,36.30
2023-05-07T22:31:09.202Z,34.80
2023-05-07T22:33:36.077Z,32.30
2023-05-07T22:36:03.008Z,32.90
2023-05-07T22:38:29.606Z,32.70
2023-05-07T22:40:56.297Z,32.20
2023-05-07T22:43:22.948Z,32.40
2023-05-07T22:45:49.637Z,33.50
2023-05-07T22:48:16.426Z,31.90
2023-05-07T22:50:43.036Z,32.50
2023-05-07T22:53:09.627Z,30.50
2023-05-07T22:55:36.189Z,30.90
2023-05-07T22:58:02.991Z,30.30
2023-05-07T23:00:29.635Z,30.60
2023-05-07T23:02:56.400Z,31.20
2023-05-07T23:05:23.641Z,31.10
2023-05-07T23:07:51.301Z,31.30
2023-05-07T23:10:21.772Z,30.20
2023-05-07T23:12:51.741Z,29.30
2023-05-07T23:15:22.548Z,27.50
2023-05-07T23:17:49.184Z,28.30
2023-05-07T23:20:16.083Z,28.30
2023-05-07T23:22:42.964Z,29.90
2023-05-07T23:25:09.742Z,28.00
2023-05-07T23:27:36.369Z,27.60
2023-05-07T23:30:03.672Z,27.80
2023-05-07T23:32:33.553Z,26.30
2023-05-07T23:35:00.208Z,27.00
2023-05-07T23:37:27.436Z,26.80
2023-05-07T23:39:54.594Z,26.00
2023-05-07T23:42:21.625Z,25.10
2023-05-07T23:44:48.285Z,24.60
2023-05-07T23:47:14.884Z,25.00
2023-05-07T23:49:41.510Z,25.30
2023-05-07T23:52:08.081Z,26.10
2023-05-07T23:54:34.782Z,25.30
2023-05-07T23:57:01.388Z,25.50
2023-05-07T23:59:28.774Z,27.80
